sensor_id;sensor_type;location;lat;lon;timestamp;pressure;altitude;pressure_sealevel;temperature;humidity
51315;BME280;65787;59.922;10.742;2023-02-20T00:00:35;99435.69;;;30.49;18.20
51315;BME280;65787;59.922;10.742;2023-02-20T00:03:01;99413.41;;;30.46;18.28
51315;BME280;65787;59.922;10.742;2023-02-20T00:05:27;99393.13;;;30.42;18.32
51315;BME280;65787;59.922;10.742;2023-02-20T00:07:52;99385.47;;;30.51;18.44
51315;BME280;65787;59.922;10.742;2023-02-20T00:10:18;99369.72;;;30.39;18.03
51315;BME280;65787;59.922;10.742;2023-02-20T00:12:43;99371.06;;;30.45;18.28
51315;BME280;65787;59.922;10.742;2023-02-20T00:15:13;99360.34;;;30.44;17.99
51315;BME280;65787;59.922;10.742;2023-02-20T00:17:38;99351.56;;;30.42;18.57
51315;BME280;65787;59.922;10.742;2023-02-20T00:20:04;99334.41;;;30.36;18.38
51315;BME280;65787;59.922;10.742;2023-02-20T19:50:09;98276.53;;;25.22;23.11
51315;BME280;65787;59.922;10.742;2023-02-20T19:52:34;98275.31;;;26.29;22.30
51315;BME280;65787;59.922;10.742;2023-02-20T19:54:59;98255.22;;;26.89;21.45
51315;BME280;65787;59.922;10.742;2023-02-20T19:57:25;98276.03;;;27.37;21.19
51315;BME280;65787;59.922;10.742;2023-02-20T19:59:50;98274.06;;;27.73;20.44
51315;BME280;65787;59.922;10.742;2023-02-20T20:02:17;98269.50;;;28.00;20.12
51315;BME280;65787;59.922;10.742;2023-02-20T20:04:43;98255.00;;;28.23;19.88
51315;BME280;65787;59.922;10.742;2023-02-20T20:07:08;98253.72;;;28.40;19.72
51315;BME280;65787;59.922;10.742;2023-02-20T20:09:34;98240.41;;;28.46;19.76
51315;BME280;65787;59.922;10.742;2023-02-20T20:11:59;98250.31;;;28.70;19.28
51315;BME280;65787;59.922;10.742;2023-02-20T20:14:24;98249.38;;;28.85;18.71
51315;BME280;65787;59.922;10.742;2023-02-20T20:16:50;98234.81;;;28.88;18.69
51315;BME280;65787;59.922;10.742;2023-02-20T20:19:16;98257.59;;;29.08;18.88
51315;BME280;65787;59.922;10.742;2023-02-20T20:21:42;98261.34;;;29.20;18.91
51315;BME280;65787;59.922;10.742;2023-02-20T20:24:09;98270.88;;;29.22;18.41
51315;BME280;65787;59.922;10.742;2023-02-20T20:26:37;98284.00;;;29.29;18.63
51315;BME280;65787;59.922;10.742;2023-02-20T20:29:03;98280.88;;;29.30;18.34
51315;BME280;65787;59.922;10.742;2023-02-20T20:31:34;98294.06;;;29.41;18.35
51315;BME280;65787;59.922;10.742;2023-02-20T20:34:00;98298.84;;;29.44;18.61
51315;BME280;65787;59.922;10.742;2023-02-20T20:36:25;98299.69;;;29.48;18.52
51315;BME280;65787;59.922;10.742;2023-02-20T20:38:51;98293.28;;;29.40;18.09
51315;BME280;65787;59.922;10.742;2023-02-20T20:41:16;98296.22;;;29.54;18.42
51315;BME280;65787;59.922;10.742;2023-02-20T20:43:43;98289.47;;;29.52;18.36
51315;BME280;65787;59.922;10.742;2023-02-20T20:46:08;98286.81;;;29.59;18.27
51315;BME280;65787;59.922;10.742;2023-02-20T20:48:34;98268.97;;;29.57;18.22
51315;BME280;65787;59.922;10.742;2023-02-20T20:51:00;98280.97;;;29.68;18.31
51315;BME280;65787;59.922;10.742;2023-02-20T20:53:26;98266.69;;;29.62;17.86
51315;BME280;65787;59.922;10.742;2023-02-20T20:55:51;98260.41;;;29.65;17.84
51315;BME280;65787;59.922;10.742;2023-02-20T20:58:16;98274.00;;;29.74;18.04
51315;BME280;65787;59.922;10.742;2023-02-20T21:00:42;98268.00;;;29.72;17.88
51315;BME280;65787;59.922;10.742;2023-02-20T21:03:08;98277.09;;;29.72;18.04
51315;BME280;65787;59.922;10.742;2023-02-20T21:05:35;98292.22;;;29.79;18.13
51315;BME280;65787;59.922;10.742;2023-02-20T21:08:01;98279.56;;;29.78;17.54
51315;BME280;65787;59.922;10.742;2023-02-20T21:10:26;98264.00;;;29.69;17.90
51315;BME280;65787;59.922;10.742;2023-02-20T21:12:52;98272.81;;;29.75;18.37
51315;BME280;65787;59.922;10.742;2023-02-20T21:15:18;98273.19;;;29.73;18.32
51315;BME280;65787;59.922;10.742;2023-02-20T21:17:44;98274.09;;;29.81;18.33
51315;BME280;65787;59.922;10.742;2023-02-20T21:20:17;98283.66;;;29.87;17.99
51315;BME280;65787;59.922;10.742;2023-02-20T21:22:43;98273.41;;;29.91;17.97
51315;BME280;65787;59.922;10.742;2023-02-20T21:25:09;98273.50;;;29.99;18.63
51315;BME280;65787;59.922;10.742;2023-02-20T21:27:35;98272.03;;;30.08;18.35
51315;BME280;65787;59.922;10.742;2023-02-20T21:30:02;98269.72;;;30.14;18.76
51315;BME280;65787;59.922;10.742;2023-02-20T21:32:28;98272.16;;;30.19;18.58
51315;BME280;65787;59.922;10.742;2023-02-20T21:34:54;98278.19;;;30.28;19.95
51315;BME280;65787;59.922;10.742;2023-02-20T21:37:19;98274.31;;;30.33;19.35
51315;BME280;65787;59.922;10.742;2023-02-20T21:39:44;98267.22;;;30.36;18.80
51315;BME280;65787;59.922;10.742;2023-02-20T21:42:10;98271.59;;;30.40;19.15
51315;BME280;65787;59.922;10.742;2023-02-20T21:44:55;98285.97;;;30.53;19.05
51315;BME280;65787;59.922;10.742;2023-02-20T21:47:20;98286.81;;;30.57;18.67
51315;BME280;65787;59.922;10.742;2023-02-20T21:49:47;98284.88;;;30.61;18.41
51315;BME280;65787;59.922;10.742;2023-02-20T21:52:13;98292.00;;;30.62;18.52
51315;BME280;65787;59.922;10.742;2023-02-20T21:54:40;98288.09;;;30.67;18.72
51315;BME280;65787;59.922;10.742;2023-02-20T21:57:06;98288.50;;;30.69;18.05
51315;BME280;65787;59.922;10.742;2023-02-20T21:59:32;98280.56;;;30.67;18.68
51315;BME280;65787;59.922;10.742;2023-02-20T22:01:57;98293.28;;;30.72;18.82
51315;BME280;65787;59.922;10.742;2023-02-20T22:04:23;98311.13;;;30.75;18.70
51315;BME280;65787;59.922;10.742;2023-02-20T22:06:49;98321.38;;;30.71;18.98
51315;BME280;65787;59.922;10.742;2023-02-20T22:09:33;98321.00;;;30.76;18.62
51315;BME280;65787;59.922;10.742;2023-02-20T22:12:17;98317.03;;;30.73;18.87
51315;BME280;65787;59.922;10.742;2023-02-20T22:15:02;98332.91;;;30.76;19.12
51315;BME280;65787;59.922;10.742;2023-02-20T22:17:46;98339.19;;;30.73;18.91
51315;BME280;65787;59.922;10.742;2023-02-20T22:20:30;98334.44;;;30.74;18.92
51315;BME280;65787;59.922;10.742;2023-02-20T22:23:13;98356.25;;;30.75;19.08
51315;BME280;65787;59.922;10.742;2023-02-20T22:25:57;98366.53;;;30.75;18.54
51315;BME280;65787;59.922;10.742;2023-02-20T22:28:41;98358.59;;;30.73;18.63
51315;BME280;65787;59.922;10.742;2023-02-20T22:31:26;98344.63;;;30.62;18.87
51315;BME280;65787;59.922;10.742;2023-02-20T22:34:09;98357.78;;;30.69;18.63
51315;BME280;65787;59.922;10.742;2023-02-20T22:36:53;98366.47;;;30.67;18.50
51315;BME280;65787;59.922;10.742;2023-02-20T22:39:37;98354.19;;;30.65;18.78
51315;BME280;65787;59.922;10.742;2023-02-20T22:42:21;98362.03;;;30.59;18.70
51315;BME280;65787;59.922;10.742;2023-02-20T22:45:05;98369.19;;;30.64;18.58
51315;BME280;65787;59.922;10.742;2023-02-20T22:47:49;98364.69;;;30.48;19.02
51315;BME280;65787;59.922;10.742;2023-02-20T22:50:33;98377.06;;;30.58;18.58
51315;BME280;65787;59.922;10.742;2023-02-20T22:53:17;98389.75;;;30.59;18.38
51315;BME280;65787;59.922;10.742;2023-02-20T22:56:01;98363.41;;;30.39;18.83
51315;BME280;65787;59.922;10.742;2023-02-20T22:58:45;98383.91;;;30.34;18.61
51315;BME280;65787;59.922;10.742;2023-02-20T23:01:29;98417.38;;;30.52;18.39
51315;BME280;65787;59.922;10.742;2023-02-20T23:04:13;98422.50;;;30.50;18.91
51315;BME280;65787;59.922;10.742;2023-02-20T23:06:56;98413.31;;;30.46;18.81
51315;BME280;65787;59.922;10.742;2023-02-20T23:09:41;98425.63;;;30.48;18.55
51315;BME280;65787;59.922;10.742;2023-02-20T23:12:25;98437.13;;;30.51;18.92
51315;BME280;65787;59.922;10.742;2023-02-20T23:15:09;98435.97;;;30.55;18.17
51315;BME280;65787;59.922;10.742;2023-02-20T23:17:53;98464.13;;;30.57;18.58
51315;BME280;65787;59.922;10.742;2023-02-20T23:20:37;98459.28;;;30.51;18.30
51315;BME280;65787;59.922;10.742;2023-02-20T23:23:21;98464.47;;;30.52;18.33
51315;BME280;65787;59.922;10.742;2023-02-20T23:26:05;98473.97;;;30.55;18.75
51315;BME280;65787;59.922;10.742;2023-02-20T23:28:49;98484.69;;;30.56;18.18
51315;BME280;65787;59.922;10.742;2023-02-20T23:31:40;98492.94;;;30.53;18.70
51315;BME280;65787;59.922;10.742;2023-02-20T23:34:25;98496.47;;;30.49;18.90
51315;BME280;65787;59.922;10.742;2023-02-20T23:37:10;98494.47;;;30.46;18.49
51315;BME280;65787;59.922;10.742;2023-02-20T23:39:55;98483.22;;;30.36;18.58
51315;BME280;65787;59.922;10.742;2023-02-20T23:42:39;98503.50;;;30.43;18.49
51315;BME280;65787;59.922;10.742;2023-02-20T23:45:23;98507.91;;;30.44;18.67
51315;BME280;65787;59.922;10.742;2023-02-20T23:48:07;98510.66;;;30.44;18.63
51315;BME280;65787;59.922;10.742;2023-02-20T23:50:51;98529.75;;;30.53;18.27
51315;BME280;65787;59.922;10.742;2023-02-20T23:53:36;98529.28;;;30.47;18.64
51315;BME280;65787;59.922;10.742;2023-02-20T23:56:21;98545.63;;;30.56;18.60
51315;BME280;65787;59.922;10.742;2023-02-20T23:59:06;98551.50;;;30.51;18.59
